createdAt,value
2018-05-07T00:01:56.563Z,17.06
2018-05-07T00:04:24.164Z,17.05
2018-05-07T00:06:51.790Z,17.00
2018-05-07T00:09:19.357Z,16.95
2018-05-07T00:11:47.289Z,16.94
2018-05-07T00:14:14.913Z,16.94
2018-05-07T00:16:42.497Z,16.89
2018-05-07T00:19:10.166Z,16.85
2018-05-07T00:21:37.866Z,16.83
2018-05-07T00:24:05.433Z,16.81
2018-05-07T00:26:33.386Z,16.82
2018-05-07T00:29:00.964Z,16.77
2018-05-07T00:31:28.520Z,16.77
2018-05-07T00:33:56.593Z,16.72
2018-05-07T00:36:24.167Z,16.69
2018-05-07T00:38:51.820Z,16.67
2018-05-07T00:41:19.472Z,16.63
2018-05-07T00:43:47.015Z,16.61
2018-05-07T00:46:14.588Z,16.58
2018-05-07T00:48:42.202Z,16.54
2018-05-07T00:51:09.795Z,16.51
2018-05-07T00:53:37.522Z,16.51
2018-05-07T00:56:05.089Z,16.51
2018-05-07T00:58:32.646Z,16.51
2018-05-07T01:01:00.260Z,16.50
2018-05-07T01:03:27.851Z,16.48
2018-05-07T01:05:55.536Z,16.46
2018-05-07T01:08:23.408Z,16.45
2018-05-07T01:10:51.058Z,16.41
2018-05-07T01:13:18.679Z,16.37
2018-05-07T01:15:46.314Z,16.35
2018-05-07T01:18:13.907Z,16.31
2018-05-07T01:20:41.487Z,16.29
2018-05-07T01:23:09.100Z,16.27
2018-05-07T01:25:36.651Z,16.23
2018-05-07T01:28:04.210Z,16.18
2018-05-07T01:30:31.980Z,16.13
2018-05-07T01:32:59.816Z,16.09
2018-05-07T01:35:27.693Z,16.07
2018-05-07T01:37:55.450Z,16.05
2018-05-07T01:40:23.235Z,16.02
2018-05-07T01:42:50.837Z,16.01
2018-05-07T01:45:18.522Z,15.99
2018-05-07T01:47:46.089Z,15.97
2018-05-07T01:50:13.732Z,15.93
2018-05-07T01:52:41.310Z,15.88
2018-05-07T01:55:08.861Z,15.84
2018-05-07T01:57:37.129Z,15.81
2018-05-07T02:00:04.712Z,15.79
2018-05-07T02:02:32.257Z,15.78
2018-05-07T02:04:59.845Z,15.74
2018-05-07T02:07:27.443Z,15.72
2018-05-07T02:09:54.996Z,15.69
2018-05-07T02:12:22.549Z,15.66
2018-05-07T02:14:50.354Z,15.64
2018-05-07T02:17:18.148Z,15.62
2018-05-07T02:19:45.785Z,15.60
2018-05-07T02:22:13.472Z,15.57
2018-05-07T02:24:41.086Z,15.57
2018-05-07T02:27:08.645Z,15.56
2018-05-07T02:29:36.272Z,15.54
2018-05-07T02:32:03.836Z,15.50
2018-05-07T02:34:31.512Z,15.47
2018-05-07T02:36:59.096Z,15.42
2018-05-07T02:39:26.646Z,15.38
2018-05-07T02:41:54.247Z,15.37
2018-05-07T02:44:21.903Z,15.33
2018-05-07T02:46:49.481Z,15.29
2018-05-07T02:49:17.130Z,15.27
2018-05-07T02:51:44.730Z,15.23
2018-05-07T02:54:12.338Z,15.22
2018-05-07T02:56:40.025Z,15.13
2018-05-07T02:59:07.592Z,15.14
2018-05-07T03:01:35.215Z,15.08
2018-05-07T03:04:02.903Z,15.05
2018-05-07T03:06:30.465Z,15.03
2018-05-07T03:08:58.016Z,15.00
2018-05-07T03:11:25.588Z,14.97
2018-05-07T03:13:53.221Z,14.94
2018-05-07T03:16:20.826Z,14.93
2018-05-07T03:18:48.538Z,14.91
2018-05-07T03:21:16.490Z,14.88
2018-05-07T03:23:44.427Z,14.86
2018-05-07T03:26:12.026Z,14.84
2018-05-07T03:28:39.880Z,14.83
2018-05-07T03:31:07.439Z,14.77
2018-05-07T03:33:35.077Z,14.72
2018-05-07T03:36:03.196Z,14.66
2018-05-07T03:38:30.763Z,14.60
2018-05-07T03:40:58.332Z,14.56
2018-05-07T03:43:26.161Z,14.51
2018-05-07T03:45:53.784Z,14.51
2018-05-07T03:48:21.403Z,14.48
2018-05-07T03:50:48.973Z,14.44
2018-05-07T03:53:16.571Z,14.40
2018-05-07T03:55:44.131Z,14.39
2018-05-07T03:58:11.692Z,14.34
2018-05-07T04:00:39.295Z,14.31
2018-05-07T04:03:06.859Z,14.23
2018-05-07T04:05:35.440Z,14.19
2018-05-07T04:08:03.276Z,14.20
2018-05-07T04:10:30.836Z,14.20
2018-05-07T04:12:58.416Z,14.16
2018-05-07T04:15:26.038Z,14.15
2018-05-07T04:18:05.421Z,14.15
2018-05-07T04:20:44.950Z,14.14
2018-05-07T04:23:24.296Z,14.11
2018-05-07T04:25:52.228Z,14.10
2018-05-07T04:28:19.799Z,14.08
2018-05-07T04:30:47.598Z,14.09
2018-05-07T04:33:15.227Z,14.11
2018-05-07T04:35:43.024Z,14.12
2018-05-07T04:38:10.579Z,14.13
2018-05-07T04:40:38.166Z,14.13
2018-05-07T04:43:05.858Z,14.12
2018-05-07T04:45:33.427Z,14.16
2018-05-07T04:48:00.996Z,14.18
2018-05-07T04:50:28.681Z,14.21
2018-05-07T04:52:56.251Z,14.24
2018-05-07T04:55:23.854Z,14.27
2018-05-07T04:57:51.843Z,14.29
2018-05-07T05:00:19.487Z,14.33
2018-05-07T05:02:47.073Z,14.37
2018-05-07T05:05:14.727Z,14.45
2018-05-07T05:07:42.309Z,14.54
2018-05-07T05:10:09.903Z,14.61
2018-05-07T05:12:37.696Z,14.68
2018-05-07T05:15:05.296Z,14.74
2018-05-07T05:17:32.984Z,14.82
2018-05-07T05:20:00.895Z,14.90
2018-05-07T05:22:28.506Z,14.95
2018-05-07T05:24:56.146Z,15.02
2018-05-07T05:27:23.870Z,15.10
2018-05-07T05:29:51.451Z,15.19
2018-05-07T05:32:19.018Z,15.29
2018-05-07T05:34:47.909Z,15.39
2018-05-07T05:37:15.661Z,15.55
2018-05-07T05:39:43.348Z,15.62
2018-05-07T05:42:11.015Z,15.72
2018-05-07T05:44:38.642Z,15.81
2018-05-07T05:47:06.204Z,15.91
2018-05-07T05:49:33.857Z,16.05
2018-05-07T05:52:01.483Z,16.16
2018-05-07T05:54:29.061Z,16.27
2018-05-07T05:56:56.629Z,16.38
2018-05-07T05:59:24.236Z,16.50
2018-05-07T06:01:51.879Z,16.60
2018-05-07T06:04:19.715Z,16.74
2018-05-07T06:06:47.356Z,16.83
2018-05-07T06:09:14.964Z,16.95
2018-05-07T06:11:43.001Z,17.13
2018-05-07T06:14:10.652Z,17.26
2018-05-07T06:16:38.218Z,17.35
2018-05-07T06:19:06.226Z,17.45
2018-05-07T06:21:33.800Z,17.58
2018-05-07T06:24:01.660Z,17.69
2018-05-07T06:26:29.268Z,17.85
2018-05-07T06:28:56.922Z,17.99
2018-05-07T06:31:24.590Z,18.13
2018-05-07T06:33:52.419Z,18.25
2018-05-07T06:36:20.270Z,18.36
2018-05-07T06:38:47.883Z,18.46
2018-05-07T06:41:15.527Z,18.62
2018-05-07T06:43:43.239Z,18.74
2018-05-07T06:46:10.800Z,18.85
2018-05-07T06:48:38.625Z,18.98
2018-05-07T06:51:06.216Z,19.12
2018-05-07T06:53:33.776Z,19.23
2018-05-07T06:56:01.455Z,19.40
2018-05-07T06:58:29.045Z,19.55
2018-05-07T07:00:56.687Z,19.69
2018-05-07T07:03:24.457Z,19.84
2018-05-07T07:05:52.034Z,19.93
2018-05-07T07:08:19.747Z,20.06
2018-05-07T07:10:47.365Z,20.17
2018-05-07T07:13:14.955Z,20.30
2018-05-07T07:15:42.556Z,20.42
2018-05-07T07:18:10.158Z,20.53
2018-05-07T07:20:37.710Z,20.69
2018-05-07T07:23:05.633Z,20.77
2018-05-07T07:25:33.231Z,20.86
2018-05-07T07:28:00.869Z,21.00
2018-05-07T07:30:28.399Z,21.06
2018-05-07T07:32:57.191Z,21.14
2018-05-07T07:35:24.848Z,21.29
2018-05-07T07:37:52.485Z,21.41
2018-05-07T07:40:20.669Z,21.46
2018-05-07T07:42:48.233Z,21.55
2018-05-07T07:45:15.803Z,21.65
2018-05-07T07:47:44.051Z,21.69
2018-05-07T07:50:11.687Z,21.82
2018-05-07T07:52:39.262Z,21.90
2018-05-07T07:55:06.930Z,22.03
2018-05-07T07:57:34.507Z,22.17
2018-05-07T08:00:02.136Z,22.17
2018-05-07T08:02:29.691Z,22.17
2018-05-07T08:04:57.253Z,22.18
2018-05-07T08:07:24.963Z,22.22
2018-05-07T08:09:52.644Z,22.35
2018-05-07T08:12:20.253Z,22.40
2018-05-07T08:14:48.022Z,22.53
2018-05-07T08:17:15.598Z,22.75
2018-05-07T08:19:43.168Z,22.88
2018-05-07T08:22:10.783Z,22.95
2018-05-07T08:24:38.335Z,22.91
2018-05-07T08:27:05.974Z,22.98
2018-05-07T08:29:33.804Z,23.05
2018-05-07T08:32:01.368Z,23.17
2018-05-07T08:34:29.141Z,23.29
2018-05-07T08:36:56.957Z,23.36
2018-05-07T08:39:24.583Z,23.50
2018-05-07T08:41:52.584Z,23.60
2018-05-07T08:44:20.145Z,23.63
2018-05-07T08:46:47.875Z,23.73
2018-05-07T08:49:15.676Z,23.89
2018-05-07T08:51:43.334Z,24.12
2018-05-07T08:54:10.919Z,24.32
2018-05-07T08:56:38.715Z,24.52
2018-05-07T08:59:06.661Z,24.54
2018-05-07T09:01:34.352Z,24.55
2018-05-07T09:04:01.955Z,24.70
2018-05-07T09:06:29.538Z,24.91
2018-05-07T09:08:57.164Z,24.93
2018-05-07T09:11:24.830Z,25.11
2018-05-07T09:13:52.463Z,25.27
2018-05-07T09:16:20.056Z,25.43
2018-05-07T09:18:47.692Z,25.52
2018-05-07T09:21:15.280Z,25.51
2018-05-07T09:23:42.915Z,25.67
2018-05-07T09:26:11.094Z,25.75
2018-05-07T09:28:38.663Z,25.67
2018-05-07T09:31:06.226Z,25.69
2018-05-07T09:33:34.094Z,25.77
2018-05-07T09:36:01.870Z,25.80
2018-05-07T09:38:29.423Z,26.05
2018-05-07T09:40:57.290Z,26.37
2018-05-07T09:43:24.987Z,26.56
2018-05-07T09:45:52.779Z,26.57
2018-05-07T09:48:20.388Z,26.56
2018-05-07T09:50:47.952Z,26.66
2018-05-07T09:53:15.579Z,26.74
2018-05-07T09:55:43.186Z,26.97
2018-05-07T09:58:10.786Z,27.13
2018-05-07T10:00:38.372Z,27.12
2018-05-07T10:03:06.006Z,27.14
2018-05-07T10:05:34.551Z,27.09
2018-05-07T10:08:02.146Z,27.16
2018-05-07T10:10:29.724Z,27.28
2018-05-07T10:12:57.549Z,27.53
2018-05-07T10:15:25.120Z,27.60
2018-05-07T10:17:53.220Z,27.71
2018-05-07T10:20:20.800Z,27.77
2018-05-07T10:22:48.458Z,27.88
2018-05-07T10:25:16.076Z,27.84
2018-05-07T10:27:43.645Z,27.79
2018-05-07T10:30:11.319Z,27.93
2018-05-07T10:32:39.140Z,28.05
2018-05-07T10:35:06.782Z,28.14
2018-05-07T10:37:34.374Z,28.45
2018-05-07T10:40:02.259Z,28.50
2018-05-07T10:42:30.359Z,28.59
2018-05-07T10:44:57.914Z,28.84
2018-05-07T10:47:25.495Z,28.85
2018-05-07T10:49:53.094Z,29.08
2018-05-07T10:52:20.668Z,29.11
2018-05-07T10:54:49.017Z,29.18
2018-05-07T10:57:16.671Z,28.96
2018-05-07T10:59:44.224Z,28.87
2018-05-07T11:02:11.856Z,28.95
2018-05-07T11:04:39.409Z,29.11
2018-05-07T11:07:07.000Z,29.23
2018-05-07T11:09:34.788Z,29.26
2018-05-07T11:12:02.549Z,29.60
2018-05-07T11:14:30.095Z,29.86
2018-05-07T11:16:57.655Z,29.96
2018-05-07T11:19:25.241Z,30.13
2018-05-07T11:21:53.588Z,30.06
2018-05-07T11:24:21.172Z,29.97
2018-05-07T11:26:48.744Z,30.12
2018-05-07T11:29:16.541Z,30.26
2018-05-07T11:31:44.116Z,30.41
2018-05-07T11:34:11.912Z,30.33
2018-05-07T11:36:39.503Z,30.40
2018-05-07T11:39:07.357Z,30.35
2018-05-07T11:41:34.987Z,30.17
2018-05-07T11:44:02.648Z,30.35
2018-05-07T11:46:30.210Z,30.56
2018-05-07T11:48:58.159Z,30.33
2018-05-07T11:51:25.749Z,30.45
2018-05-07T11:53:53.382Z,30.33
2018-05-07T11:56:21.358Z,30.47
2018-05-07T11:58:48.911Z,30.48
2018-05-07T12:01:16.483Z,30.34
2018-05-07T12:03:44.420Z,30.44
2018-05-07T12:06:11.990Z,30.55
2018-05-07T12:08:39.646Z,30.67
2018-05-07T12:11:07.327Z,30.55
2018-05-07T12:13:35.107Z,30.08
2018-05-07T12:16:02.836Z,29.95
2018-05-07T12:18:30.323Z,30.24
2018-05-07T12:20:58.343Z,30.61
2018-05-07T12:23:25.892Z,30.94
2018-05-07T12:25:53.586Z,31.05
2018-05-07T12:28:21.499Z,30.76
2018-05-07T12:30:49.064Z,30.96
2018-05-07T12:33:16.947Z,30.66
2018-05-07T12:35:44.572Z,30.57
2018-05-07T12:38:12.155Z,30.77
2018-05-07T12:40:40.041Z,31.16
2018-05-07T12:43:07.640Z,31.22
2018-05-07T12:45:35.260Z,31.08
2018-05-07T12:48:02.816Z,31.27
2018-05-07T12:50:30.462Z,31.12
2018-05-07T12:52:58.115Z,31.24
2018-05-07T12:55:25.671Z,31.55
2018-05-07T12:57:53.363Z,31.35
2018-05-07T13:00:21.256Z,31.55
2018-05-07T13:02:48.891Z,31.73
2018-05-07T13:05:16.566Z,31.45
2018-05-07T13:07:44.114Z,31.66
2018-05-07T13:10:11.821Z,31.85
2018-05-07T13:12:39.613Z,31.88
2018-05-07T13:15:07.181Z,31.90
2018-05-07T13:17:35.575Z,32.03
2018-05-07T13:20:03.304Z,32.07
2018-05-07T13:22:30.915Z,32.05
2018-05-07T13:24:58.507Z,31.81
2018-05-07T13:27:26.117Z,31.91
2018-05-07T13:29:53.711Z,31.96
2018-05-07T13:32:21.279Z,32.02
2018-05-07T13:34:49.133Z,31.83
2018-05-07T13:37:17.449Z,31.78
2018-05-07T13:39:45.134Z,31.84
2018-05-07T13:42:12.684Z,31.65
2018-05-07T13:44:40.319Z,31.60
2018-05-07T13:47:07.942Z,31.71
2018-05-07T13:49:35.499Z,31.85
2018-05-07T13:52:04.028Z,32.06
2018-05-07T13:54:33.348Z,32.23
2018-05-07T13:57:02.190Z,32.15
2018-05-07T13:59:30.682Z,32.34
2018-05-07T14:01:58.390Z,32.53
2018-05-07T14:04:26.032Z,32.60
2018-05-07T14:06:53.642Z,32.73
2018-05-07T14:09:21.629Z,32.77
2018-05-07T14:11:49.721Z,32.82
2018-05-07T14:14:17.799Z,32.94
2018-05-07T14:16:45.474Z,33.11
2018-05-07T14:19:12.989Z,33.13
2018-05-07T14:21:40.645Z,32.96
2018-05-07T14:24:08.196Z,33.02
2018-05-07T14:26:35.886Z,33.01
2018-05-07T14:29:03.745Z,32.90
2018-05-07T14:31:31.392Z,33.04
2018-05-07T14:33:58.968Z,33.02
2018-05-07T14:36:26.828Z,32.93
2018-05-07T14:38:54.479Z,33.01
2018-05-07T14:41:22.277Z,32.72
2018-05-07T14:43:49.933Z,32.81
2018-05-07T14:46:17.544Z,32.96
2018-05-07T14:48:45.200Z,32.76
2018-05-07T14:51:13.003Z,32.68
2018-05-07T14:53:41.031Z,32.53
2018-05-07T14:56:08.595Z,32.44
2018-05-07T14:58:36.167Z,32.44
2018-05-07T15:01:04.120Z,32.54
2018-05-07T15:03:31.710Z,32.54
2018-05-07T15:05:59.353Z,32.56
2018-05-07T15:08:27.646Z,32.52
2018-05-07T15:10:55.250Z,32.17
2018-05-07T15:13:22.866Z,32.23
2018-05-07T15:15:50.432Z,32.42
2018-05-07T15:18:18.015Z,31.83
2018-05-07T15:20:45.965Z,31.81
2018-05-07T15:23:13.845Z,31.94
2018-05-07T15:25:41.515Z,31.89
2018-05-07T15:28:09.224Z,31.86
2018-05-07T15:30:36.784Z,31.88
2018-05-07T15:33:04.381Z,31.77
2018-05-07T15:35:32.119Z,31.10
2018-05-07T15:37:59.744Z,30.95
2018-05-07T15:40:27.399Z,30.97
2018-05-07T15:42:54.963Z,30.64
2018-05-07T15:45:22.663Z,30.80
2018-05-07T15:47:50.325Z,30.59
2018-05-07T15:50:17.875Z,30.88
2018-05-07T15:52:45.647Z,31.05
2018-05-07T15:55:13.597Z,30.73
2018-05-07T15:57:41.292Z,30.56
2018-05-07T16:00:09.146Z,30.50
2018-05-07T16:02:36.768Z,30.57
2018-05-07T16:05:04.324Z,30.49
2018-05-07T16:07:32.008Z,30.42
2018-05-07T16:09:59.803Z,30.57
2018-05-07T16:12:27.355Z,30.67
2018-05-07T16:14:55.040Z,30.48
2018-05-07T16:17:22.854Z,30.31
2018-05-07T16:19:51.091Z,30.24
2018-05-07T16:22:19.172Z,30.31
2018-05-07T16:24:46.825Z,30.22
2018-05-07T16:27:14.514Z,30.14
2018-05-07T16:29:42.067Z,30.07
2018-05-07T16:32:09.736Z,29.43
2018-05-07T16:34:37.355Z,29.43
2018-05-07T16:37:04.901Z,29.40
2018-05-07T16:39:32.535Z,29.54
2018-05-07T16:42:00.126Z,29.53
2018-05-07T16:44:28.098Z,29.53
2018-05-07T16:46:55.668Z,29.35
2018-05-07T16:49:23.239Z,29.27
2018-05-07T16:51:51.048Z,29.30
2018-05-07T16:54:18.738Z,29.21
2018-05-07T16:56:46.309Z,29.13
2018-05-07T16:59:13.867Z,29.03
2018-05-07T17:01:41.658Z,29.00
2018-05-07T17:04:09.259Z,29.00
2018-05-07T17:06:36.946Z,28.70
2018-05-07T17:09:04.559Z,28.64
2018-05-07T17:11:32.163Z,28.59
2018-05-07T17:13:59.724Z,28.62
2018-05-07T17:16:27.928Z,28.58
2018-05-07T17:18:55.533Z,28.41
2018-05-07T17:21:23.108Z,28.14
2018-05-07T17:23:51.100Z,28.13
2018-05-07T17:26:18.776Z,28.14
2018-05-07T17:28:46.336Z,28.03
2018-05-07T17:31:13.917Z,27.99
2018-05-07T17:33:41.686Z,27.91
2018-05-07T17:36:09.126Z,27.72
2018-05-07T17:38:36.710Z,27.68
2018-05-07T17:41:04.264Z,27.54
2018-05-07T17:43:31.869Z,27.52
2018-05-07T17:46:11.392Z,27.47
2018-05-07T17:48:50.955Z,27.34
2018-05-07T17:51:18.580Z,27.18
2018-05-07T17:53:46.192Z,27.06
2018-05-07T17:56:14.267Z,26.97
2018-05-07T17:58:41.835Z,26.90
2018-05-07T18:01:09.384Z,26.88
2018-05-07T18:03:37.032Z,26.85
2018-05-07T18:06:04.629Z,26.77
2018-05-07T18:08:32.476Z,26.68
2018-05-07T18:11:00.029Z,26.45
2018-05-07T18:13:27.658Z,26.41
2018-05-07T18:15:55.377Z,26.35
2018-05-07T18:18:22.994Z,26.26
2018-05-07T18:20:50.637Z,26.13
2018-05-07T18:23:18.463Z,26.07
2018-05-07T18:25:46.271Z,26.03
2018-05-07T18:28:14.107Z,25.96
2018-05-07T18:30:41.992Z,25.80
2018-05-07T18:33:09.636Z,25.69
2018-05-07T18:35:37.276Z,25.60
2018-05-07T18:38:04.927Z,25.48
2018-05-07T18:40:32.487Z,25.39
2018-05-07T18:43:00.071Z,25.31
2018-05-07T18:45:27.637Z,25.18
2018-05-07T18:47:55.310Z,25.06
2018-05-07T18:50:22.879Z,24.92
2018-05-07T18:52:50.569Z,24.81
2018-05-07T18:55:18.162Z,24.76
2018-05-07T18:57:45.850Z,24.66
2018-05-07T19:00:13.505Z,24.59
2018-05-07T19:02:41.092Z,24.56
2018-05-07T19:05:08.793Z,24.51
2018-05-07T19:07:36.464Z,24.42
2018-05-07T19:10:04.084Z,24.34
2018-05-07T19:12:31.688Z,24.27
2018-05-07T19:14:59.264Z,24.23
2018-05-07T19:17:26.997Z,24.14
2018-05-07T19:19:54.822Z,24.08
2018-05-07T19:22:22.398Z,24.02
2018-05-07T19:24:50.199Z,23.94
2018-05-07T19:27:17.844Z,23.88
2018-05-07T19:29:46.346Z,23.80
2018-05-07T19:32:14.071Z,23.67
2018-05-07T19:34:41.634Z,23.58
2018-05-07T19:37:09.213Z,23.50
2018-05-07T19:39:36.929Z,23.42
2018-05-07T19:42:04.492Z,23.31
2018-05-07T19:44:32.041Z,23.22
2018-05-07T19:46:59.627Z,23.13
2018-05-07T19:49:27.277Z,23.02
2018-05-07T19:51:54.895Z,22.94
2018-05-07T19:54:22.716Z,22.86
2018-05-07T19:56:50.447Z,22.77
2018-05-07T19:59:18.051Z,22.68
2018-05-07T20:01:45.678Z,22.64
2018-05-07T20:04:13.614Z,22.58
2018-05-07T20:06:41.422Z,22.55
2018-05-07T20:09:09.359Z,22.48
2018-05-07T20:11:37.286Z,22.40
2018-05-07T20:14:04.860Z,22.32
2018-05-07T20:16:32.501Z,22.23
2018-05-07T20:19:00.062Z,22.17
2018-05-07T20:21:27.718Z,22.04
2018-05-07T20:23:55.706Z,21.98
2018-05-07T20:26:23.300Z,21.88
2018-05-07T20:28:50.991Z,21.79
2018-05-07T20:31:18.547Z,21.73
2018-05-07T20:33:46.211Z,21.70
2018-05-07T20:36:14.141Z,21.68
2018-05-07T20:38:41.696Z,21.63
2018-05-07T20:41:09.257Z,21.57
2018-05-07T20:43:36.844Z,21.48
2018-05-07T20:46:04.455Z,21.43
2018-05-07T20:48:32.082Z,21.39
2018-05-07T20:50:59.630Z,21.37
2018-05-07T20:53:27.824Z,21.30
2018-05-07T20:55:55.384Z,21.27
2018-05-07T20:58:23.196Z,21.22
2018-05-07T21:00:51.293Z,21.15
2018-05-07T21:03:18.924Z,21.11
2018-05-07T21:05:46.480Z,21.08
2018-05-07T21:08:14.323Z,21.05
2018-05-07T21:10:41.966Z,21.01
2018-05-07T21:13:09.614Z,20.97
2018-05-07T21:15:37.116Z,20.92
2018-05-07T21:18:04.747Z,20.84
2018-05-07T21:20:32.571Z,20.80
2018-05-07T21:23:00.262Z,20.73
2018-05-07T21:25:28.237Z,20.66
2018-05-07T21:27:56.145Z,20.59
2018-05-07T21:30:23.847Z,20.53
2018-05-07T21:32:51.530Z,20.47
2018-05-07T21:35:19.190Z,20.40
2018-05-07T21:37:46.835Z,20.34
2018-05-07T21:40:14.398Z,20.30
2018-05-07T21:42:41.953Z,20.28
2018-05-07T21:45:09.603Z,20.22
2018-05-07T21:47:37.179Z,20.16
2018-05-07T21:50:05.158Z,20.10
2018-05-07T21:52:32.891Z,20.06
2018-05-07T21:55:00.443Z,19.99
2018-05-07T21:57:28.023Z,19.92
2018-05-07T21:59:55.582Z,19.84
2018-05-07T22:02:23.200Z,19.79
2018-05-07T22:04:50.817Z,19.74
2018-05-07T22:07:18.473Z,19.69
2018-05-07T22:09:46.302Z,19.63
2018-05-07T22:12:14.152Z,19.57
2018-05-07T22:14:41.727Z,19.51
2018-05-07T22:17:09.316Z,19.45
2018-05-07T22:19:36.884Z,19.39
2018-05-07T22:22:04.487Z,19.33
2018-05-07T22:24:32.142Z,19.27
2018-05-07T22:26:59.725Z,19.16
2018-05-07T22:29:27.346Z,19.09
2018-05-07T22:31:55.180Z,19.05
2018-05-07T22:34:22.799Z,18.98
2018-05-07T22:36:50.537Z,18.93
2018-05-07T22:39:18.160Z,18.89
2018-05-07T22:41:45.748Z,18.84
2018-05-07T22:44:13.393Z,18.79
2018-05-07T22:46:41.050Z,18.76
2018-05-07T22:49:08.929Z,18.73
2018-05-07T22:51:36.538Z,18.70
2018-05-07T22:54:04.113Z,18.68
2018-05-07T22:56:31.987Z,18.65
2018-05-07T22:58:59.538Z,18.60
2018-05-07T23:01:27.563Z,18.55
2018-05-07T23:03:55.211Z,18.49
2018-05-07T23:06:22.772Z,18.43
2018-05-07T23:08:50.374Z,18.36
2018-05-07T23:11:18.001Z,18.29
2018-05-07T23:13:45.581Z,18.23
2018-05-07T23:16:13.196Z,18.15
2018-05-07T23:18:40.785Z,18.11
2018-05-07T23:21:08.343Z,18.12
2018-05-07T23:23:35.924Z,18.09
2018-05-07T23:26:03.710Z,18.08
2018-05-07T23:28:31.329Z,18.06
2018-05-07T23:30:59.021Z,18.03
2018-05-07T23:33:26.680Z,18.05
2018-05-07T23:35:54.315Z,18.03
2018-05-07T23:38:21.898Z,17.98
2018-05-07T23:40:49.453Z,17.96
2018-05-07T23:43:17.052Z,17.93
2018-05-07T23:45:44.640Z,17.90
2018-05-07T23:48:12.295Z,17.89
2018-05-07T23:50:39.891Z,17.88
2018-05-07T23:53:07.448Z,17.86
2018-05-07T23:55:35.294Z,17.87
2018-05-07T23:58:02.844Z,17.79
